Weather at J A Knolle Airport

Public forecast

Using degrees Fahrenheit for public forecast. Weather courtesy of forecast.io.

Closest aviation weather report (METAR) to J A Knolle Airport

Closest report is Orange Grove Naval Auxiliary Landing Field, 13.5 nm (24.9 km) WSW. Retrieved 2021/01/18 16:13 UTC (0 seconds ago):

KNOG 181613Z AUTO 18011KT 10SM SCT005 BKN012 A3005 RMK AO2 PNO

Closest aviation forecast (TAF) to J A Knolle Airport

Closest forecast is Alice International Airport, 18.7 nm (34.7 km) SW. Retrieved 2021/01/18 12:30 UTC (4 hours ago):

TAF KALI 181128Z 1812/1912 VRB05KT 6SM BR FEW005 SCT013 TEMPO 1812/1814 2SM BR OVC005 FM181700 17015G22KT P6SM SCT040 FM190000 15014KT P6SM SCT025 BKN040 TEMPO 1904/1908 BKN025 FM190800 16009KT P6SM BKN020 AMD NOT SKED